sensor_id;sensor_type;location;lat;lon;timestamp;temperature;humidity
25024;DHT22;13033;50.936;5.334;2024-02-21T00:00:40;10.20;99.90
25024;DHT22;13033;50.936;5.334;2024-02-21T00:03:07;10.00;99.90
25024;DHT22;13033;50.936;5.334;2024-02-21T00:05:33;10.10;99.90
25024;DHT22;13033;50.936;5.334;2024-02-21T00:07:59;10.10;99.90
25024;DHT22;13033;50.936;5.334;2024-02-21T00:10:25;10.20;99.90
25024;DHT22;13033;50.936;5.334;2024-02-21T00:12:51;10.20;99.90
25024;DHT22;13033;50.936;5.334;2024-02-21T00:15:17;10.10;99.90
25024;DHT22;13033;50.936;5.334;2024-02-21T00:17:44;10.20;99.90
25024;DHT22;13033;50.936;5.334;2024-02-21T00:20:10;10.30;99.90
25024;DHT22;13033;50.936;5.334;2024-02-21T00:22:36;10.30;99.90
25024;DHT22;13033;50.936;5.334;2024-02-21T00:25:02;10.30;99.90
25024;DHT22;13033;50.936;5.334;2024-02-21T00:27:28;10.20;99.90
25024;DHT22;13033;50.936;5.334;2024-02-21T00:29:53;10.20;99.90
25024;DHT22;13033;50.936;5.334;2024-02-21T00:32:19;10.30;99.90
25024;DHT22;13033;50.936;5.334;2024-02-21T00:34:45;10.20;99.90
25024;DHT22;13033;50.936;5.334;2024-02-21T00:37:10;10.20;99.90
25024;DHT22;13033;50.936;5.334;2024-02-21T00:39:36;10.10;99.90
25024;DHT22;13033;50.936;5.334;2024-02-21T00:42:02;10.20;99.90
25024;DHT22;13033;50.936;5.334;2024-02-21T00:44:28;10.20;99.90
25024;DHT22;13033;50.936;5.334;2024-02-21T00:46:54;10.20;99.90
25024;DHT22;13033;50.936;5.334;2024-02-21T00:49:19;10.20;99.90
25024;DHT22;13033;50.936;5.334;2024-02-21T00:51:45;10.20;99.90
25024;DHT22;13033;50.936;5.334;2024-02-21T00:54:11;10.20;99.90
25024;DHT22;13033;50.936;5.334;2024-02-21T00:56:36;10.20;99.90
25024;DHT22;13033;50.936;5.334;2024-02-21T00:59:02;10.10;99.90
25024;DHT22;13033;50.936;5.334;2024-02-21T01:01:28;10.20;99.90
25024;DHT22;13033;50.936;5.334;2024-02-21T01:03:53;10.20;99.90
25024;DHT22;13033;50.936;5.334;2024-02-21T01:06:19;10.20;99.90
25024;DHT22;13033;50.936;5.334;2024-02-21T01:08:46;10.10;99.90
25024;DHT22;13033;50.936;5.334;2024-02-21T01:11:14;10.10;99.90
25024;DHT22;13033;50.936;5.334;2024-02-21T01:13:39;10.20;99.90
25024;DHT22;13033;50.936;5.334;2024-02-21T01:16:06;10.10;99.90
25024;DHT22;13033;50.936;5.334;2024-02-21T01:18:33;10.00;99.90
25024;DHT22;13033;50.936;5.334;2024-02-21T01:20:59;10.00;99.90
25024;DHT22;13033;50.936;5.334;2024-02-21T01:23:24;10.10;99.90
25024;DHT22;13033;50.936;5.334;2024-02-21T01:25:50;10.10;99.90
25024;DHT22;13033;50.936;5.334;2024-02-21T01:28:16;10.30;99.90
25024;DHT22;13033;50.936;5.334;2024-02-21T01:30:42;10.30;99.90
25024;DHT22;13033;50.936;5.334;2024-02-21T01:33:08;10.20;99.90
25024;DHT22;13033;50.936;5.334;2024-02-21T01:35:34;10.30;99.90
25024;DHT22;13033;50.936;5.334;2024-02-21T01:38:00;10.30;99.90
25024;DHT22;13033;50.936;5.334;2024-02-21T01:40:25;10.20;99.90
25024;DHT22;13033;50.936;5.334;2024-02-21T01:42:54;10.20;99.90
25024;DHT22;13033;50.936;5.334;2024-02-21T01:45:20;10.00;99.90
25024;DHT22;13033;50.936;5.334;2024-02-21T01:47:46;10.00;99.90
25024;DHT22;13033;50.936;5.334;2024-02-21T01:50:14;10.10;99.90
25024;DHT22;13033;50.936;5.334;2024-02-21T01:52:40;10.00;99.90
25024;DHT22;13033;50.936;5.334;2024-02-21T01:55:06;10.00;99.90
25024;DHT22;13033;50.936;5.334;2024-02-21T01:57:32;10.00;99.90
25024;DHT22;13033;50.936;5.334;2024-02-21T01:59:58;10.10;99.90
25024;DHT22;13033;50.936;5.334;2024-02-21T02:02:24;10.00;99.90
25024;DHT22;13033;50.936;5.334;2024-02-21T02:04:50;10.10;99.90
25024;DHT22;13033;50.936;5.334;2024-02-21T02:07:17;10.00;99.90
25024;DHT22;13033;50.936;5.334;2024-02-21T02:09:43;10.10;99.90
25024;DHT22;13033;50.936;5.334;2024-02-21T02:12:09;10.20;99.90
25024;DHT22;13033;50.936;5.334;2024-02-21T02:14:35;10.20;99.90
25024;DHT22;13033;50.936;5.334;2024-02-21T02:17:00;10.10;99.90
25024;DHT22;13033;50.936;5.334;2024-02-21T02:19:26;10.00;99.90
25024;DHT22;13033;50.936;5.334;2024-02-21T02:21:56;10.10;99.90
25024;DHT22;13033;50.936;5.334;2024-02-21T02:24:25;10.20;99.90
25024;DHT22;13033;50.936;5.334;2024-02-21T02:26:51;10.30;99.90
25024;DHT22;13033;50.936;5.334;2024-02-21T02:29:17;10.30;99.90
25024;DHT22;13033;50.936;5.334;2024-02-21T02:31:42;10.30;99.90
25024;DHT22;13033;50.936;5.334;2024-02-21T02:34:08;10.20;99.90
25024;DHT22;13033;50.936;5.334;2024-02-21T02:36:35;10.10;99.90
25024;DHT22;13033;50.936;5.334;2024-02-21T02:39:01;10.10;99.90
25024;DHT22;13033;50.936;5.334;2024-02-21T02:41:27;10.00;99.90
25024;DHT22;13033;50.936;5.334;2024-02-21T02:43:52;10.00;99.90
25024;DHT22;13033;50.936;5.334;2024-02-21T02:46:18;10.10;99.90
25024;DHT22;13033;50.936;5.334;2024-02-21T02:48:44;9.90;99.90
25024;DHT22;13033;50.936;5.334;2024-02-21T02:51:10;9.90;99.90
25024;DHT22;13033;50.936;5.334;2024-02-21T02:53:36;9.90;99.90
25024;DHT22;13033;50.936;5.334;2024-02-21T02:56:02;10.00;99.90
25024;DHT22;13033;50.936;5.334;2024-02-21T02:58:28;10.00;99.90
25024;DHT22;13033;50.936;5.334;2024-02-21T03:00:54;10.10;99.90
25024;DHT22;13033;50.936;5.334;2024-02-21T03:03:19;10.00;99.90
25024;DHT22;13033;50.936;5.334;2024-02-21T03:05:45;10.00;99.90
25024;DHT22;13033;50.936;5.334;2024-02-21T03:08:11;10.00;99.90
25024;DHT22;13033;50.936;5.334;2024-02-21T03:10:37;10.00;99.90
25024;DHT22;13033;50.936;5.334;2024-02-21T03:13:02;10.00;99.90
25024;DHT22;13033;50.936;5.334;2024-02-21T03:15:29;10.00;99.90
25024;DHT22;13033;50.936;5.334;2024-02-21T03:17:54;10.10;99.90
25024;DHT22;13033;50.936;5.334;2024-02-21T03:20:20;10.00;99.90
25024;DHT22;13033;50.936;5.334;2024-02-21T03:22:46;10.00;99.90
25024;DHT22;13033;50.936;5.334;2024-02-21T03:25:11;10.00;99.90
25024;DHT22;13033;50.936;5.334;2024-02-21T03:27:39;9.80;99.90
25024;DHT22;13033;50.936;5.334;2024-02-21T03:30:05;9.90;99.90
25024;DHT22;13033;50.936;5.334;2024-02-21T03:32:30;9.80;99.90
25024;DHT22;13033;50.936;5.334;2024-02-21T03:34:56;9.80;99.90
25024;DHT22;13033;50.936;5.334;2024-02-21T03:37:22;9.80;99.90
25024;DHT22;13033;50.936;5.334;2024-02-21T03:39:48;9.90;99.90
25024;DHT22;13033;50.936;5.334;2024-02-21T03:42:15;9.80;99.90
25024;DHT22;13033;50.936;5.334;2024-02-21T03:44:40;9.80;99.90
25024;DHT22;13033;50.936;5.334;2024-02-21T03:47:06;9.70;99.90
25024;DHT22;13033;50.936;5.334;2024-02-21T03:49:32;9.70;99.90
25024;DHT22;13033;50.936;5.334;2024-02-21T03:51:57;9.80;99.90
25024;DHT22;13033;50.936;5.334;2024-02-21T03:54:23;9.90;99.90
25024;DHT22;13033;50.936;5.334;2024-02-21T03:56:49;9.90;99.90
25024;DHT22;13033;50.936;5.334;2024-02-21T03:59:14;9.90;99.90
25024;DHT22;13033;50.936;5.334;2024-02-21T04:01:40;9.90;99.90
25024;DHT22;13033;50.936;5.334;2024-02-21T04:04:06;9.90;99.90
25024;DHT22;13033;50.936;5.334;2024-02-21T04:06:32;9.90;99.90
25024;DHT22;13033;50.936;5.334;2024-02-21T04:08:58;9.70;99.90
25024;DHT22;13033;50.936;5.334;2024-02-21T04:11:23;9.70;99.90
25024;DHT22;13033;50.936;5.334;2024-02-21T04:13:50;9.70;99.90
25024;DHT22;13033;50.936;5.334;2024-02-21T04:16:17;9.70;99.90
25024;DHT22;13033;50.936;5.334;2024-02-21T04:18:43;9.70;99.90
25024;DHT22;13033;50.936;5.334;2024-02-21T04:21:09;9.70;99.90
25024;DHT22;13033;50.936;5.334;2024-02-21T04:23:35;9.70;99.90
25024;DHT22;13033;50.936;5.334;2024-02-21T04:26:01;9.70;99.90
25024;DHT22;13033;50.936;5.334;2024-02-21T04:28:27;9.70;99.90
25024;DHT22;13033;50.936;5.334;2024-02-21T04:30:52;9.70;99.90
25024;DHT22;13033;50.936;5.334;2024-02-21T04:33:18;9.70;99.90
25024;DHT22;13033;50.936;5.334;2024-02-21T04:35:44;9.60;99.90
25024;DHT22;13033;50.936;5.334;2024-02-21T04:38:10;9.70;99.90
25024;DHT22;13033;50.936;5.334;2024-02-21T04:40:36;9.70;99.90
25024;DHT22;13033;50.936;5.334;2024-02-21T04:43:02;9.70;99.90
25024;DHT22;13033;50.936;5.334;2024-02-21T04:45:28;9.60;99.90
25024;DHT22;13033;50.936;5.334;2024-02-21T04:47:54;9.60;99.90
25024;DHT22;13033;50.936;5.334;2024-02-21T04:50:19;9.60;99.90
25024;DHT22;13033;50.936;5.334;2024-02-21T04:52:45;9.70;99.90
25024;DHT22;13033;50.936;5.334;2024-02-21T04:55:10;9.70;99.90
25024;DHT22;13033;50.936;5.334;2024-02-21T04:57:36;9.70;99.90
25024;DHT22;13033;50.936;5.334;2024-02-21T05:00:02;9.70;99.90
25024;DHT22;13033;50.936;5.334;2024-02-21T05:02:29;9.70;99.90
25024;DHT22;13033;50.936;5.334;2024-02-21T05:04:55;9.60;99.90
25024;DHT22;13033;50.936;5.334;2024-02-21T05:07:21;9.70;99.90
25024;DHT22;13033;50.936;5.334;2024-02-21T05:09:47;9.50;99.90
25024;DHT22;13033;50.936;5.334;2024-02-21T05:12:13;9.40;99.90
25024;DHT22;13033;50.936;5.334;2024-02-21T05:14:38;9.50;99.90
25024;DHT22;13033;50.936;5.334;2024-02-21T05:17:04;9.50;99.90
25024;DHT22;13033;50.936;5.334;2024-02-21T05:19:30;9.40;99.90
25024;DHT22;13033;50.936;5.334;2024-02-21T05:21:56;9.40;99.90
25024;DHT22;13033;50.936;5.334;2024-02-21T05:24:21;9.30;99.90
25024;DHT22;13033;50.936;5.334;2024-02-21T05:26:47;9.30;99.90
25024;DHT22;13033;50.936;5.334;2024-02-21T05:29:13;9.40;99.90
25024;DHT22;13033;50.936;5.334;2024-02-21T05:34:20;9.30;99.90
25024;DHT22;13033;50.936;5.334;2024-02-21T05:36:46;9.30;99.90
25024;DHT22;13033;50.936;5.334;2024-02-21T05:39:13;9.30;99.90
25024;DHT22;13033;50.936;5.334;2024-02-21T05:41:38;9.40;99.90
25024;DHT22;13033;50.936;5.334;2024-02-21T05:44:04;9.40;99.90
25024;DHT22;13033;50.936;5.334;2024-02-21T05:46:30;9.30;99.90
25024;DHT22;13033;50.936;5.334;2024-02-21T05:48:55;9.40;99.90
25024;DHT22;13033;50.936;5.334;2024-02-21T05:51:21;9.40;99.90
25024;DHT22;13033;50.936;5.334;2024-02-21T05:53:47;9.50;99.90
25024;DHT22;13033;50.936;5.334;2024-02-21T05:56:13;9.40;99.90
25024;DHT22;13033;50.936;5.334;2024-02-21T05:58:39;9.40;99.90
25024;DHT22;13033;50.936;5.334;2024-02-21T06:01:05;9.40;99.90
25024;DHT22;13033;50.936;5.334;2024-02-21T06:03:32;9.30;99.90
25024;DHT22;13033;50.936;5.334;2024-02-21T06:06:01;9.30;99.90
25024;DHT22;13033;50.936;5.334;2024-02-21T06:08:27;9.30;99.90
25024;DHT22;13033;50.936;5.334;2024-02-21T06:10:53;9.20;99.90
25024;DHT22;13033;50.936;5.334;2024-02-21T06:13:23;9.20;99.90
25024;DHT22;13033;50.936;5.334;2024-02-21T06:15:50;9.20;99.90
25024;DHT22;13033;50.936;5.334;2024-02-21T06:18:17;9.20;99.90
25024;DHT22;13033;50.936;5.334;2024-02-21T06:20:43;9.10;99.90
25024;DHT22;13033;50.936;5.334;2024-02-21T06:23:10;9.10;99.90
25024;DHT22;13033;50.936;5.334;2024-02-21T06:25:36;9.10;99.90
25024;DHT22;13033;50.936;5.334;2024-02-21T06:28:02;9.20;99.90
25024;DHT22;13033;50.936;5.334;2024-02-21T06:30:28;9.20;99.90
25024;DHT22;13033;50.936;5.334;2024-02-21T06:32:53;9.20;99.90
25024;DHT22;13033;50.936;5.334;2024-02-21T06:35:21;9.10;99.90
25024;DHT22;13033;50.936;5.334;2024-02-21T06:37:47;9.10;99.90
25024;DHT22;13033;50.936;5.334;2024-02-21T06:40:17;9.00;99.90
25024;DHT22;13033;50.936;5.334;2024-02-21T06:42:42;9.00;99.90
25024;DHT22;13033;50.936;5.334;2024-02-21T06:45:08;8.90;99.90
25024;DHT22;13033;50.936;5.334;2024-02-21T06:47:34;8.90;99.90
25024;DHT22;13033;50.936;5.334;2024-02-21T06:50:00;8.80;99.90
25024;DHT22;13033;50.936;5.334;2024-02-21T06:52:25;8.80;99.90
25024;DHT22;13033;50.936;5.334;2024-02-21T06:54:52;8.70;99.90
25024;DHT22;13033;50.936;5.334;2024-02-21T06:57:17;8.70;99.90
25024;DHT22;13033;50.936;5.334;2024-02-21T06:59:43;8.70;99.90
25024;DHT22;13033;50.936;5.334;2024-02-21T07:02:09;8.70;99.90
25024;DHT22;13033;50.936;5.334;2024-02-21T07:04:35;8.60;99.90
25024;DHT22;13033;50.936;5.334;2024-02-21T07:07:00;8.70;99.90
25024;DHT22;13033;50.936;5.334;2024-02-21T07:09:26;8.70;99.90
25024;DHT22;13033;50.936;5.334;2024-02-21T07:11:54;8.70;99.90
25024;DHT22;13033;50.936;5.334;2024-02-21T07:14:19;8.60;99.90
25024;DHT22;13033;50.936;5.334;2024-02-21T07:16:45;8.60;99.90
25024;DHT22;13033;50.936;5.334;2024-02-21T07:19:11;8.60;99.90
25024;DHT22;13033;50.936;5.334;2024-02-21T07:21:36;8.60;99.90
25024;DHT22;13033;50.936;5.334;2024-02-21T07:24:07;8.60;99.90
25024;DHT22;13033;50.936;5.334;2024-02-21T07:26:33;8.60;99.90
25024;DHT22;13033;50.936;5.334;2024-02-21T07:28:59;8.50;99.90
25024;DHT22;13033;50.936;5.334;2024-02-21T07:31:25;8.50;99.90
25024;DHT22;13033;50.936;5.334;2024-02-21T07:33:51;8.50;99.90
25024;DHT22;13033;50.936;5.334;2024-02-21T07:36:28;8.60;99.90
25024;DHT22;13033;50.936;5.334;2024-02-21T07:38:53;8.70;99.90
25024;DHT22;13033;50.936;5.334;2024-02-21T07:41:19;8.70;99.90
25024;DHT22;13033;50.936;5.334;2024-02-21T07:43:45;8.60;99.90
25024;DHT22;13033;50.936;5.334;2024-02-21T07:46:10;8.60;99.90
25024;DHT22;13033;50.936;5.334;2024-02-21T07:48:36;8.70;99.90
25024;DHT22;13033;50.936;5.334;2024-02-21T07:51:02;8.60;99.90
25024;DHT22;13033;50.936;5.334;2024-02-21T07:53:28;8.60;99.90
25024;DHT22;13033;50.936;5.334;2024-02-21T07:55:53;8.60;99.90
25024;DHT22;13033;50.936;5.334;2024-02-21T07:58:19;8.60;99.90
25024;DHT22;13033;50.936;5.334;2024-02-21T08:00:45;8.70;99.90
25024;DHT22;13033;50.936;5.334;2024-02-21T08:03:10;8.80;99.90
25024;DHT22;13033;50.936;5.334;2024-02-21T08:05:36;8.80;99.90
25024;DHT22;13033;50.936;5.334;2024-02-21T08:08:03;8.90;99.90
25024;DHT22;13033;50.936;5.334;2024-02-21T08:10:29;9.00;99.90
25024;DHT22;13033;50.936;5.334;2024-02-21T08:12:54;9.00;99.90
25024;DHT22;13033;50.936;5.334;2024-02-21T08:15:20;9.00;99.90
25024;DHT22;13033;50.936;5.334;2024-02-21T08:17:49;9.10;99.90
25024;DHT22;13033;50.936;5.334;2024-02-21T08:20:15;9.30;99.90
25024;DHT22;13033;50.936;5.334;2024-02-21T08:22:41;9.30;99.90
25024;DHT22;13033;50.936;5.334;2024-02-21T08:25:06;9.30;99.90
25024;DHT22;13033;50.936;5.334;2024-02-21T08:27:32;9.40;99.90
25024;DHT22;13033;50.936;5.334;2024-02-21T08:29:58;9.40;99.90
25024;DHT22;13033;50.936;5.334;2024-02-21T08:32:24;9.50;99.90
25024;DHT22;13033;50.936;5.334;2024-02-21T08:34:49;9.50;99.90
25024;DHT22;13033;50.936;5.334;2024-02-21T08:37:15;9.70;99.90
25024;DHT22;13033;50.936;5.334;2024-02-21T08:39:41;9.80;99.90
25024;DHT22;13033;50.936;5.334;2024-02-21T08:42:07;9.80;99.90
25024;DHT22;13033;50.936;5.334;2024-02-21T08:44:32;9.80;99.90
25024;DHT22;13033;50.936;5.334;2024-02-21T08:46:58;9.90;99.90
25024;DHT22;13033;50.936;5.334;2024-02-21T08:49:24;9.90;99.90
25024;DHT22;13033;50.936;5.334;2024-02-21T08:51:52;9.80;99.90
25024;DHT22;13033;50.936;5.334;2024-02-21T08:54:18;9.90;99.90
25024;DHT22;13033;50.936;5.334;2024-02-21T08:56:44;9.90;99.90
25024;DHT22;13033;50.936;5.334;2024-02-21T08:59:09;9.80;99.90
25024;DHT22;13033;50.936;5.334;2024-02-21T09:01:35;9.90;99.90
25024;DHT22;13033;50.936;5.334;2024-02-21T09:04:01;9.90;99.90
25024;DHT22;13033;50.936;5.334;2024-02-21T09:06:28;9.80;99.90
25024;DHT22;13033;50.936;5.334;2024-02-21T09:08:56;9.80;99.90
25024;DHT22;13033;50.936;5.334;2024-02-21T09:11:22;9.80;99.90
25024;DHT22;13033;50.936;5.334;2024-02-21T09:13:48;9.80;99.90
25024;DHT22;13033;50.936;5.334;2024-02-21T09:16:14;9.70;99.90
25024;DHT22;13033;50.936;5.334;2024-02-21T09:18:39;9.70;99.90
25024;DHT22;13033;50.936;5.334;2024-02-21T09:21:05;9.80;99.90
25024;DHT22;13033;50.936;5.334;2024-02-21T09:23:31;10.00;99.90
25024;DHT22;13033;50.936;5.334;2024-02-21T09:25:57;10.00;99.90
25024;DHT22;13033;50.936;5.334;2024-02-21T09:28:23;10.10;99.90
25024;DHT22;13033;50.936;5.334;2024-02-21T09:30:49;10.10;99.90
25024;DHT22;13033;50.936;5.334;2024-02-21T09:33:14;10.20;99.90
25024;DHT22;13033;50.936;5.334;2024-02-21T09:35:40;10.20;99.90
25024;DHT22;13033;50.936;5.334;2024-02-21T09:38:06;10.20;99.90
25024;DHT22;13033;50.936;5.334;2024-02-21T09:40:31;10.30;99.90
25024;DHT22;13033;50.936;5.334;2024-02-21T09:43:06;10.20;99.90
25024;DHT22;13033;50.936;5.334;2024-02-21T09:45:33;10.20;99.90
25024;DHT22;13033;50.936;5.334;2024-02-21T09:50:46;10.30;99.90
25024;DHT22;13033;50.936;5.334;2024-02-21T09:53:13;10.30;99.90
25024;DHT22;13033;50.936;5.334;2024-02-21T09:55:40;10.30;99.90
25024;DHT22;13033;50.936;5.334;2024-02-21T09:58:07;10.30;99.90
25024;DHT22;13033;50.936;5.334;2024-02-21T10:00:34;10.40;99.90
25024;DHT22;13033;50.936;5.334;2024-02-21T10:03:00;10.40;99.90
25024;DHT22;13033;50.936;5.334;2024-02-21T10:05:26;10.60;99.90
25024;DHT22;13033;50.936;5.334;2024-02-21T10:07:52;10.50;99.90
25024;DHT22;13033;50.936;5.334;2024-02-21T10:10:19;10.60;99.90
25024;DHT22;13033;50.936;5.334;2024-02-21T10:12:50;10.60;99.90
25024;DHT22;13033;50.936;5.334;2024-02-21T10:15:20;10.70;99.90
25024;DHT22;13033;50.936;5.334;2024-02-21T10:17:47;10.80;99.90
25024;DHT22;13033;50.936;5.334;2024-02-21T10:20:13;11.10;99.90
25024;DHT22;13033;50.936;5.334;2024-02-21T10:22:40;11.00;99.90
25024;DHT22;13033;50.936;5.334;2024-02-21T10:25:10;11.00;99.90
25024;DHT22;13033;50.936;5.334;2024-02-21T10:27:37;10.90;99.90
25024;DHT22;13033;50.936;5.334;2024-02-21T10:30:07;10.90;99.90
25024;DHT22;13033;50.936;5.334;2024-02-21T10:32:33;10.90;99.90
25024;DHT22;13033;50.936;5.334;2024-02-21T10:35:02;10.80;99.90
25024;DHT22;13033;50.936;5.334;2024-02-21T10:37:30;10.80;99.90
25024;DHT22;13033;50.936;5.334;2024-02-21T10:39:57;11.00;99.90
25024;DHT22;13033;50.936;5.334;2024-02-21T10:42:23;10.90;99.90
25024;DHT22;13033;50.936;5.334;2024-02-21T10:44:53;10.80;99.90
25024;DHT22;13033;50.936;5.334;2024-02-21T10:47:23;10.80;99.90
25024;DHT22;13033;50.936;5.334;2024-02-21T10:49:54;10.90;99.90
25024;DHT22;13033;50.936;5.334;2024-02-21T10:52:51;11.10;99.90
25024;DHT22;13033;50.936;5.334;2024-02-21T10:55:29;11.20;99.90
25024;DHT22;13033;50.936;5.334;2024-02-21T10:57:58;11.20;99.90
25024;DHT22;13033;50.936;5.334;2024-02-21T11:00:24;11.40;99.90
25024;DHT22;13033;50.936;5.334;2024-02-21T11:02:59;11.50;99.90
25024;DHT22;13033;50.936;5.334;2024-02-21T11:05:26;11.40;99.90
25024;DHT22;13033;50.936;5.334;2024-02-21T11:07:53;11.50;99.90
25024;DHT22;13033;50.936;5.334;2024-02-21T11:10:26;11.60;99.90
25024;DHT22;13033;50.936;5.334;2024-02-21T11:13:10;11.60;99.90
25024;DHT22;13033;50.936;5.334;2024-02-21T11:15:36;11.50;99.90
25024;DHT22;13033;50.936;5.334;2024-02-21T11:18:02;11.40;99.90
25024;DHT22;13033;50.936;5.334;2024-02-21T11:20:34;11.40;99.90
25024;DHT22;13033;50.936;5.334;2024-02-21T11:23:01;11.60;99.90
25024;DHT22;13033;50.936;5.334;2024-02-21T11:25:27;11.60;99.90
25024;DHT22;13033;50.936;5.334;2024-02-21T11:28:01;11.70;99.90
25024;DHT22;13033;50.936;5.334;2024-02-21T11:30:30;11.60;99.90
25024;DHT22;13033;50.936;5.334;2024-02-21T11:33:03;11.40;99.90
25024;DHT22;13033;50.936;5.334;2024-02-21T11:35:33;11.50;99.90
25024;DHT22;13033;50.936;5.334;2024-02-21T11:38:13;11.60;99.90
25024;DHT22;13033;50.936;5.334;2024-02-21T11:40:41;11.60;99.90
25024;DHT22;13033;50.936;5.334;2024-02-21T11:43:07;11.80;99.90
25024;DHT22;13033;50.936;5.334;2024-02-21T11:45:33;11.80;99.90
25024;DHT22;13033;50.936;5.334;2024-02-21T11:47:59;11.90;99.90
25024;DHT22;13033;50.936;5.334;2024-02-21T11:50:29;11.80;99.90
25024;DHT22;13033;50.936;5.334;2024-02-21T11:52:55;11.80;99.90
25024;DHT22;13033;50.936;5.334;2024-02-21T11:55:21;11.90;99.90
25024;DHT22;13033;50.936;5.334;2024-02-21T11:57:50;12.00;99.90
25024;DHT22;13033;50.936;5.334;2024-02-21T12:00:17;12.10;99.90
25024;DHT22;13033;50.936;5.334;2024-02-21T12:02:45;12.20;99.90
25024;DHT22;13033;50.936;5.334;2024-02-21T12:05:11;12.20;99.90
25024;DHT22;13033;50.936;5.334;2024-02-21T12:07:37;12.20;99.90
25024;DHT22;13033;50.936;5.334;2024-02-21T12:10:10;12.10;99.90
25024;DHT22;13033;50.936;5.334;2024-02-21T12:12:36;12.10;99.90
25024;DHT22;13033;50.936;5.334;2024-02-21T12:15:04;12.10;99.90
25024;DHT22;13033;50.936;5.334;2024-02-21T12:17:34;12.00;99.90
25024;DHT22;13033;50.936;5.334;2024-02-21T12:20:05;12.00;99.90
25024;DHT22;13033;50.936;5.334;2024-02-21T12:22:35;12.00;99.90
25024;DHT22;13033;50.936;5.334;2024-02-21T12:25:19;11.90;99.90
25024;DHT22;13033;50.936;5.334;2024-02-21T12:27:46;12.10;99.90
25024;DHT22;13033;50.936;5.334;2024-02-21T12:30:11;12.00;99.90
25024;DHT22;13033;50.936;5.334;2024-02-21T12:32:37;12.10;99.90
25024;DHT22;13033;50.936;5.334;2024-02-21T12:35:03;12.00;99.90
25024;DHT22;13033;50.936;5.334;2024-02-21T12:37:29;11.90;99.90
25024;DHT22;13033;50.936;5.334;2024-02-21T12:39:55;11.90;99.90
25024;DHT22;13033;50.936;5.334;2024-02-21T12:42:20;12.00;99.90
25024;DHT22;13033;50.936;5.334;2024-02-21T12:44:46;12.00;99.90
25024;DHT22;13033;50.936;5.334;2024-02-21T12:47:12;11.90;99.90
25024;DHT22;13033;50.936;5.334;2024-02-21T12:49:38;11.90;99.90
25024;DHT22;13033;50.936;5.334;2024-02-21T12:52:04;11.90;99.90
25024;DHT22;13033;50.936;5.334;2024-02-21T12:54:29;11.80;99.90
25024;DHT22;13033;50.936;5.334;2024-02-21T12:56:56;11.90;99.90
25024;DHT22;13033;50.936;5.334;2024-02-21T12:59:22;12.00;99.90
25024;DHT22;13033;50.936;5.334;2024-02-21T13:01:48;12.20;99.90
25024;DHT22;13033;50.936;5.334;2024-02-21T13:04:14;12.20;99.90
25024;DHT22;13033;50.936;5.334;2024-02-21T13:06:39;12.10;99.90
25024;DHT22;13033;50.936;5.334;2024-02-21T13:09:05;11.90;99.90
25024;DHT22;13033;50.936;5.334;2024-02-21T13:11:34;11.80;99.90
25024;DHT22;13033;50.936;5.334;2024-02-21T13:14:00;11.80;99.90
25024;DHT22;13033;50.936;5.334;2024-02-21T13:16:26;11.80;99.90
25024;DHT22;13033;50.936;5.334;2024-02-21T13:18:52;11.80;99.90
25024;DHT22;13033;50.936;5.334;2024-02-21T13:21:18;11.80;99.90
25024;DHT22;13033;50.936;5.334;2024-02-21T13:23:44;11.90;99.90
25024;DHT22;13033;50.936;5.334;2024-02-21T13:26:10;12.00;99.90
25024;DHT22;13033;50.936;5.334;2024-02-21T13:28:36;12.10;99.90
25024;DHT22;13033;50.936;5.334;2024-02-21T13:31:02;12.00;99.90
25024;DHT22;13033;50.936;5.334;2024-02-21T13:33:28;11.80;99.90
25024;DHT22;13033;50.936;5.334;2024-02-21T13:35:54;11.80;99.90
25024;DHT22;13033;50.936;5.334;2024-02-21T13:38:20;11.90;99.90
25024;DHT22;13033;50.936;5.334;2024-02-21T13:40:45;11.90;99.90
25024;DHT22;13033;50.936;5.334;2024-02-21T13:43:11;11.80;99.90
25024;DHT22;13033;50.936;5.334;2024-02-21T13:45:38;11.70;99.90
25024;DHT22;13033;50.936;5.334;2024-02-21T13:48:04;11.80;99.90
25024;DHT22;13033;50.936;5.334;2024-02-21T13:50:31;11.90;99.90
25024;DHT22;13033;50.936;5.334;2024-02-21T13:52:57;11.80;99.90
25024;DHT22;13033;50.936;5.334;2024-02-21T13:55:23;11.90;99.90
25024;DHT22;13033;50.936;5.334;2024-02-21T13:57:51;11.70;99.90
25024;DHT22;13033;50.936;5.334;2024-02-21T14:00:18;11.70;99.90
25024;DHT22;13033;50.936;5.334;2024-02-21T14:02:43;11.70;99.90
25024;DHT22;13033;50.936;5.334;2024-02-21T14:05:10;11.70;99.90
25024;DHT22;13033;50.936;5.334;2024-02-21T14:07:35;11.80;99.90
25024;DHT22;13033;50.936;5.334;2024-02-21T14:10:02;11.70;99.90
25024;DHT22;13033;50.936;5.334;2024-02-21T14:12:29;11.70;99.90
25024;DHT22;13033;50.936;5.334;2024-02-21T14:14:54;11.60;99.90
25024;DHT22;13033;50.936;5.334;2024-02-21T14:17:23;11.70;99.90
25024;DHT22;13033;50.936;5.334;2024-02-21T14:19:50;11.70;99.90
25024;DHT22;13033;50.936;5.334;2024-02-21T14:22:17;11.70;99.90
25024;DHT22;13033;50.936;5.334;2024-02-21T14:24:42;11.60;99.90
25024;DHT22;13033;50.936;5.334;2024-02-21T14:27:08;11.60;99.90
25024;DHT22;13033;50.936;5.334;2024-02-21T14:29:34;11.60;99.90
25024;DHT22;13033;50.936;5.334;2024-02-21T14:32:00;11.60;99.90
25024;DHT22;13033;50.936;5.334;2024-02-21T14:34:26;11.60;99.90
25024;DHT22;13033;50.936;5.334;2024-02-21T14:36:52;11.60;99.90
25024;DHT22;13033;50.936;5.334;2024-02-21T14:39:17;11.60;99.90
25024;DHT22;13033;50.936;5.334;2024-02-21T14:41:43;11.70;99.90
25024;DHT22;13033;50.936;5.334;2024-02-21T14:44:09;11.80;99.90
25024;DHT22;13033;50.936;5.334;2024-02-21T14:46:37;11.70;99.90
25024;DHT22;13033;50.936;5.334;2024-02-21T14:49:03;11.60;99.90
25024;DHT22;13033;50.936;5.334;2024-02-21T14:51:29;11.50;99.90
25024;DHT22;13033;50.936;5.334;2024-02-21T14:53:56;11.60;99.90
25024;DHT22;13033;50.936;5.334;2024-02-21T14:56:22;11.50;99.90
25024;DHT22;13033;50.936;5.334;2024-02-21T14:58:49;11.50;99.90
25024;DHT22;13033;50.936;5.334;2024-02-21T15:01:15;11.50;99.90
25024;DHT22;13033;50.936;5.334;2024-02-21T15:03:42;11.30;99.90
25024;DHT22;13033;50.936;5.334;2024-02-21T15:06:08;11.20;99.90
25024;DHT22;13033;50.936;5.334;2024-02-21T15:08:34;11.20;99.90
25024;DHT22;13033;50.936;5.334;2024-02-21T15:11:01;11.00;99.90
25024;DHT22;13033;50.936;5.334;2024-02-21T15:13:27;11.00;99.90
25024;DHT22;13033;50.936;5.334;2024-02-21T15:15:53;11.00;99.90
25024;DHT22;13033;50.936;5.334;2024-02-21T15:18:19;11.10;99.90
25024;DHT22;13033;50.936;5.334;2024-02-21T15:20:45;11.00;99.90
25024;DHT22;13033;50.936;5.334;2024-02-21T15:23:11;10.90;99.90
25024;DHT22;13033;50.936;5.334;2024-02-21T15:25:37;10.90;99.90
25024;DHT22;13033;50.936;5.334;2024-02-21T15:28:03;10.70;99.90
25024;DHT22;13033;50.936;5.334;2024-02-21T15:30:32;10.60;99.90
25024;DHT22;13033;50.936;5.334;2024-02-21T15:32:58;10.60;99.90
25024;DHT22;13033;50.936;5.334;2024-02-21T15:35:30;10.60;99.90
25024;DHT22;13033;50.936;5.334;2024-02-21T15:37:57;10.50;99.90